nws-alerts: Checking more than four warning/county codes can delay the loading of your pages. You should use a cron job to get the data.

Nearby METAR Weather Reports

 

KETB - West Bend, WI
Distance from station: E 4mi, 6km
Updated: 08/04/2021 10:55am
Clear
Clear
 Wind from NW
Wind: NW 7 mph , 11 km/h
Temperature: 79°F , 26°C
Dew Point: 55°F , 13°C
Humidity: 45%
Barometer: 30.14 inHg , 1020.7 hPa
Clouds: Clear
Visibility: 10 miles , 16 km
2021/08/04 15:55 KETB 041555Z AUTO 32006KT 10SM CLR 26/13 A3014 RMK AO2
KFLD - Fond Du Lac, WI
Distance from station: W 34mi, 54km
Updated: 08/04/2021 10:53am
Clear
Clear
 Wind from calm
Wind: Calm
Temperature: 82°F , 28°C
Heat Index: 83°F , 28°C
Dew Point: 63°F , 17°C
Humidity: 51%
Barometer: 30.13 inHg , 1020.3 hPa
Clouds: Clear
Visibility: 10 miles , 16 km
2021/08/04 15:53 KFLD 041553Z AUTO 00000KT 10SM CLR 28/17 A3013 RMK AO2 SLP200 T02780167
 
KSBM - Sheboygan, WI
Distance from station: NE 36mi, 57km
Updated: 08/04/2021 10:53am
Clear
Clear
 Wind from W
Wind: W 7 mph , 11 km/h
Temperature: 81°F , 27°C
Heat Index: 82°F , 28°C
Dew Point: 63°F , 17°C
Humidity: 54%
Barometer: 30.13 inHg , 1020.3 hPa
Clouds: Clear
Visibility: 8 miles , 13 km
2021/08/04 15:53 KSBM 041553Z AUTO 28006KT 8SM CLR 27/17 A3013 RMK AO2 SLP199 T02720167
KMKE - Milwaukee, WI
Distance from station: S 44mi, 70km
Updated: 08/04/2021 10:52am
Clear
Clear
 Wind from NNW
Wind: NNW 6 mph , 9 km/h
Temperature: 82°F , 28°C
Heat Index: 82°F , 28°C
Dew Point: 57°F , 14°C
Humidity: 42%
Barometer: 30.13 inHg , 1020.3 hPa
Clouds: Clear
Visibility: 9 miles , 14 km
2021/08/04 15:52 KMKE 041552Z 33005KT 9SM CLR 28/14 A3013 RMK AO2 SLP199 T02780144
 
KOSH - Oshkosh, WI
Distance from station: WNW 52mi, 83km
Updated: 08/04/2021 10:53am
Clear
Clear
 Wind from varies
Wind: varies 5 mph , 7 km/h
Temperature: 79°F , 26°C
Dew Point: 64°F , 18°C
Humidity: 61%
Barometer: 30.13 inHg , 1020.3 hPa
Clouds: Clear
Visibility: 7 miles , 11 km
2021/08/04 15:53 KOSH 041553Z VRB04KT 7SM CLR 26/18 A3013 RMK AO2 SLP189 T02560178
KENW - Kenosha, WI
Distance from station: SSE 69mi, 111km
Updated: 08/04/2021 10:53am
Haze, Clear
Haze, Clear
 Wind from varies
Wind: varies 5 mph , 7 km/h
Temperature: 82°F , 28°C
Heat Index: 82°F , 28°C
Dew Point: 57°F , 14°C
Humidity: 42%
Barometer: 30.14 inHg , 1020.7 hPa
Summary: Haze
Clouds: Clear
Visibility: 6 miles , 10 km
2021/08/04 15:53 KENW 041553Z VRB04KT 6SM HZ CLR 28/14 A3014 RMK AO2 SLP204 T02830144
 
KMSN - Madison, WI
Distance from station: SW 69mi, 111km
Updated: 08/04/2021 10:53am
Few Clouds
Few Clouds
 Wind from N
Wind: N 5 mph , 7 km/h
Temperature: 81°F , 27°C
Heat Index: 82°F , 28°C
Dew Point: 61°F , 16°C
Humidity: 51%
Barometer: 30.14 inHg , 1020.7 hPa
Clouds: Few Clouds
Visibility: 10 miles , 16 km
Cloud details: Few Clouds 4500 ft
2021/08/04 15:53 KMSN 041553Z 35004KT 10SM FEW045 27/16 A3014 RMK AO2 SLP202 T02670156
KSAW - Marquette, MI
Distance from station: N 262mi, 421km
Updated: 08/04/2021 10:46am
Haze, Clear
Haze, Clear
 Wind from SSW
Wind: SSW 7 mph , 11 km/h
Temperature: 77°F , 25°C
Dew Point: 61°F , 16°C
Humidity: 57%
Barometer: 30.08 inHg , 1018.6 hPa
Summary: Haze
Clouds: Clear
Visibility: 6 miles , 10 km
2021/08/04 15:46 KSAW 041546Z 21006KT 6SM HZ CLR 25/16 A3008
 
KIMT - Iron Mountain, MI
Distance from station: NNW 201mi, 323km
Updated: 08/04/2021 10:54am
Haze, Clear
Haze, Clear
 Wind from WSW
Wind: WSW 5 mph , 7 km/h
Temperature: 79°F , 26°C
Dew Point: 63°F , 17°C
Humidity: 58%
Barometer: 30.09 inHg , 1019 hPa
Summary: Haze
Clouds: Clear
Visibility: 6 miles , 10 km
2021/08/04 15:54 KIMT 041554Z AUTO 25004KT 6SM HZ CLR 26/17 A3009 RMK AO2 SLP184 T02560167
KGRB - Green Bay, WI
Distance from station: NNW 87mi, 140km
Updated: 08/04/2021 10:53am
Clear
Clear
 Wind from varies
Wind: varies 5 mph , 7 km/h
Temperature: 81°F , 27°C
Heat Index: 83°F , 28°C
Dew Point: 64°F , 18°C
Humidity: 58%
Barometer: 30.11 inHg , 1019.6 hPa
Clouds: Clear
Visibility: 8 miles , 13 km
2021/08/04 15:53 KGRB 041553Z VRB04KT 8SM CLR 27/18 A3011 RMK AO2 SLP194 T02670178
 
KAUW - Wausau, WI
Distance from station: NW 155mi, 249km
Updated: 08/04/2021 10:54am
Haze, Clear
Haze, Clear
 Wind from W
Wind: W 6 mph , 9 km/h
Temperature: 79°F , 26°C
Dew Point: 63°F , 17°C
Humidity: 58%
Barometer: 30.12 inHg , 1020 hPa
Summary: Haze
Clouds: Clear
Visibility: 6 miles , 10 km
2021/08/04 15:54 KAUW 041554Z AUTO 28005KT 6SM HZ CLR 26/17 A3012 RMK AO2 SLP198 T02610167
KORD - Chicago O'Hare, IL
Distance from station: S 113mi, 181km
Updated: 08/04/2021 10:51am
Clear
Clear
 Wind from calm
Wind: Calm
Temperature: 81°F , 27°C
Heat Index: 81°F , 27°C
Dew Point: 55°F , 13°C
Humidity: 42%
Barometer: 30.14 inHg , 1020.7 hPa
Clouds: Clear
Visibility: 10 miles , 16 km
2021/08/04 15:51 KORD 041551Z 00000KT 10SM CLR 27/13 A3014 RMK AO2 SLP199 T02670128
 
KVOK - WIANG Volk Field, Camp Douglas, WI
Distance from station: WNW 120mi, 193km
Updated: 08/04/2021 9:56am
Clear
Clear
 Wind from calm
Wind: Calm
Temperature: 75°F , 24°C
Dew Point: 63°F , 17°C
Humidity: 65%
Barometer: 30.14 inHg , 1020.7 hPa
Clouds: Clear
Visibility: 7 miles , 11 km
2021/08/04 14:56 KVOK 041456Z 00000KT 7SM CLR 24/17 A3014 RMK AO2A SLP207 50004
KLNR - Lone Rock, WI
Distance from station: W 114mi, 183km
Updated: 08/04/2021 9:56am
Clear
Clear
 Wind from WSW
Wind: WSW 3 mph , 6 km/h
Temperature: 70°F , 21°C
Dew Point: 64°F , 18°C
Humidity: 83%
Barometer: 30.15 inHg , 1021 hPa
Clouds: Clear
Visibility: 9 miles , 14 km
2021/08/04 14:56 KLNR 041456Z AUTO 24003KT 9SM CLR 21/18 A3015 RMK AO2 SLP203 T02060178 50002